createdAt,value
2023-04-22T00:00:15.915Z,9.20
2023-04-22T00:00:38.703Z,9.20
2023-04-22T00:01:02.342Z,9.20
2023-04-22T00:01:25.150Z,9.30
2023-04-22T00:01:48.096Z,9.20
2023-04-22T00:02:14.782Z,9.20
2023-04-22T00:02:37.822Z,9.30
2023-04-22T00:03:02.110Z,9.30
2023-04-22T00:03:25.264Z,9.30
2023-04-22T00:03:48.352Z,9.30
2023-04-22T00:04:11.599Z,9.30
2023-04-22T00:04:35.054Z,9.30
2023-04-22T00:04:58.101Z,9.30
2023-04-22T00:05:21.488Z,9.30
2023-04-22T00:05:45.263Z,9.30
2023-04-22T00:06:08.512Z,9.30
2023-04-22T00:06:32.748Z,9.30
2023-04-22T00:06:55.550Z,9.30
2023-04-22T00:07:18.284Z,9.20
2023-04-22T00:07:41.072Z,9.20
2023-04-22T00:08:04.413Z,9.10
2023-04-22T00:08:27.260Z,9.20
2023-04-22T00:08:50.072Z,9.10
2023-04-22T00:09:13.172Z,9.10
2023-04-22T00:09:36.345Z,9.10
2023-04-22T00:09:59.345Z,9.10
2023-04-22T00:10:22.119Z,9.20
2023-04-22T00:10:44.924Z,9.20
2023-04-22T00:11:07.807Z,9.10
2023-04-22T00:11:30.747Z,9.20
2023-04-22T00:11:53.568Z,9.10
2023-04-22T00:12:16.296Z,9.10
2023-04-22T00:12:39.095Z,9.10
2023-04-22T00:13:01.905Z,9.10
2023-04-22T00:13:24.659Z,9.10
2023-04-22T00:13:47.420Z,9.00
2023-04-22T00:14:10.264Z,9.00
2023-04-22T00:14:33.032Z,9.00
2023-04-22T00:14:55.847Z,9.00
2023-04-22T00:15:21.816Z,9.00
2023-04-22T00:15:44.573Z,9.00
2023-04-22T00:16:07.766Z,9.00
2023-04-22T00:16:30.700Z,9.00
2023-04-22T00:16:53.447Z,9.00
2023-04-22T00:17:16.158Z,9.00
2023-04-22T00:17:39.088Z,9.00
2023-04-22T00:18:01.917Z,9.00
2023-04-22T00:18:24.766Z,9.00
2023-04-22T00:18:47.894Z,9.00
2023-04-22T00:19:10.628Z,9.00
2023-04-22T00:19:33.612Z,8.90
2023-04-22T00:19:56.391Z,9.00
2023-04-22T00:20:21.655Z,8.90
2023-04-22T00:20:44.453Z,8.90
2023-04-22T00:21:08.093Z,8.90
2023-04-22T00:21:32.984Z,8.90
2023-04-22T00:21:56.340Z,8.90
2023-04-22T00:22:19.109Z,8.80
2023-04-22T00:22:41.842Z,8.90
2023-04-22T00:23:04.596Z,8.90
2023-04-22T00:23:27.372Z,8.90
2023-04-22T00:23:50.251Z,8.80
2023-04-22T00:24:13.040Z,8.90
2023-04-22T00:24:35.813Z,8.90
2023-04-22T00:24:58.640Z,8.90
2023-04-22T00:25:21.472Z,8.80
2023-04-22T00:25:44.265Z,8.80
2023-04-22T00:26:07.052Z,8.80
2023-04-22T00:26:29.966Z,8.80
2023-04-22T00:26:52.704Z,8.80
2023-04-22T00:27:15.456Z,8.80
2023-04-22T00:27:38.300Z,8.80
2023-04-22T00:28:01.127Z,8.80
2023-04-22T00:28:23.961Z,8.80
2023-04-22T00:28:46.825Z,8.80
2023-04-22T00:29:09.656Z,8.80
2023-04-22T00:29:32.594Z,8.80
2023-04-22T00:29:55.265Z,8.80
2023-04-22T00:30:18.069Z,8.80
2023-04-22T00:30:40.903Z,8.80
2023-04-22T00:31:04.957Z,8.80
2023-04-22T00:31:27.971Z,8.80
2023-04-22T00:31:50.912Z,8.80
2023-04-22T00:32:13.950Z,8.80
2023-04-22T00:32:36.756Z,8.80
2023-04-22T00:32:59.646Z,8.80
2023-04-22T00:33:22.450Z,8.80
2023-04-22T00:33:45.207Z,8.80
2023-04-22T00:34:08.107Z,8.80
2023-04-22T00:34:30.886Z,8.80
2023-04-22T00:34:53.588Z,8.80
2023-04-22T00:35:16.524Z,8.80
2023-04-22T00:35:39.387Z,8.80
2023-04-22T00:36:02.100Z,8.70
2023-04-22T00:36:24.872Z,8.70
2023-04-22T00:36:49.001Z,8.70
2023-04-22T00:37:11.774Z,8.70
2023-04-22T00:37:35.242Z,8.70
2023-04-22T00:37:58.086Z,8.70
2023-04-22T00:38:21.313Z,8.70
2023-04-22T00:38:46.513Z,8.70
2023-04-22T00:39:09.649Z,8.70
2023-04-22T00:39:32.419Z,8.60
2023-04-22T00:39:55.138Z,8.70
2023-04-22T00:40:18.063Z,8.70
2023-04-22T00:40:41.983Z,8.70
2023-04-22T00:41:04.848Z,8.70
2023-04-22T00:41:28.151Z,8.70
2023-04-22T00:41:50.987Z,8.70
2023-04-22T00:42:13.840Z,8.60
2023-04-22T00:42:37.435Z,8.70
2023-04-22T00:43:00.654Z,8.60
2023-04-22T00:43:23.395Z,8.60
2023-04-22T00:43:46.219Z,8.70
2023-04-22T00:44:10.145Z,8.70
2023-04-22T00:44:33.106Z,8.70
2023-04-22T00:44:55.898Z,8.70
2023-04-22T00:45:19.406Z,8.70
2023-04-22T00:45:42.202Z,8.70
2023-04-22T00:46:04.978Z,8.80
2023-04-22T00:46:27.813Z,8.80
2023-04-22T00:46:50.632Z,8.80
2023-04-22T00:47:13.536Z,8.80
2023-04-22T00:47:37.203Z,8.80
2023-04-22T00:48:00.326Z,8.70
2023-04-22T00:48:23.338Z,8.70
2023-04-22T00:48:46.169Z,8.70
2023-04-22T00:49:08.942Z,8.70
2023-04-22T00:49:31.781Z,8.70
2023-04-22T00:49:55.391Z,8.60
2023-04-22T00:50:18.304Z,8.60
2023-04-22T00:50:41.110Z,8.60
2023-04-22T00:51:04.191Z,8.60
2023-04-22T00:51:28.210Z,8.60
2023-04-22T00:51:52.412Z,8.60
2023-04-22T00:52:15.206Z,8.60
2023-04-22T00:52:38.021Z,8.60
2023-04-22T00:53:00.879Z,8.60
2023-04-22T00:53:23.712Z,8.60
2023-04-22T00:53:46.516Z,8.60
2023-04-22T00:54:09.341Z,8.60
2023-04-22T00:54:32.178Z,8.60
2023-04-22T00:54:55.027Z,8.60
2023-04-22T00:55:17.996Z,8.70
2023-04-22T00:55:40.924Z,8.60
2023-04-22T00:56:03.925Z,8.70
2023-04-22T00:56:27.605Z,8.70
2023-04-22T00:56:50.424Z,8.70
2023-04-22T00:57:13.207Z,8.70
2023-04-22T00:57:36.148Z,8.60
2023-04-22T00:57:59.009Z,8.60
2023-04-22T00:58:21.951Z,8.60
2023-04-22T00:58:44.701Z,8.60
2023-04-22T00:59:07.966Z,8.50
2023-04-22T00:59:30.730Z,8.50
2023-04-22T00:59:53.577Z,8.50
2023-04-22T01:00:16.753Z,8.50
2023-04-22T01:00:39.660Z,8.50
2023-04-22T01:01:02.535Z,8.50
2023-04-22T01:01:25.760Z,8.40
2023-04-22T01:01:48.790Z,8.50
2023-04-22T01:02:12.096Z,8.50
2023-04-22T01:02:35.051Z,8.40
2023-04-22T01:02:58.567Z,8.40
2023-04-22T01:03:22.366Z,8.40
2023-04-22T01:03:45.620Z,8.40
2023-04-22T01:04:10.952Z,8.40
2023-04-22T01:04:33.920Z,8.40
2023-04-22T01:04:56.775Z,8.40
2023-04-22T01:05:20.236Z,8.30
2023-04-22T01:05:43.023Z,8.40
2023-04-22T01:06:06.112Z,8.40
2023-04-22T01:06:29.140Z,8.40
2023-04-22T01:06:53.950Z,8.40
2023-04-22T01:07:16.669Z,8.30
2023-04-22T01:07:39.460Z,8.40
2023-04-22T01:08:02.539Z,8.40
2023-04-22T01:08:28.586Z,8.30
2023-04-22T01:08:51.401Z,8.30
2023-04-22T01:09:14.140Z,8.30
2023-04-22T01:09:36.848Z,8.30
2023-04-22T01:09:59.592Z,8.30
2023-04-22T01:10:22.418Z,8.40
2023-04-22T01:10:45.329Z,8.40
2023-04-22T01:11:08.069Z,8.40
2023-04-22T01:11:30.787Z,8.40
2023-04-22T01:11:53.521Z,8.50
2023-04-22T01:12:16.180Z,8.50
2023-04-22T01:12:38.916Z,8.50
2023-04-22T01:13:01.627Z,8.50
2023-04-22T01:13:24.536Z,8.50
2023-04-22T01:13:47.320Z,8.50
2023-04-22T01:14:10.091Z,8.50
2023-04-22T01:14:32.828Z,8.50
2023-04-22T01:14:55.989Z,8.50
2023-04-22T01:15:19.247Z,8.50
2023-04-22T01:15:42.040Z,8.50
2023-04-22T01:16:06.403Z,8.40
2023-04-22T01:16:29.764Z,8.40
2023-04-22T01:16:54.332Z,8.40
2023-04-22T01:17:19.451Z,8.40
2023-04-22T01:17:42.379Z,8.40
2023-04-22T01:18:05.445Z,8.30
2023-04-22T01:18:28.618Z,8.30
2023-04-22T01:18:53.307Z,8.30
2023-04-22T01:19:16.059Z,8.30
2023-04-22T01:19:39.054Z,8.30
2023-04-22T01:20:04.522Z,8.30
2023-04-22T01:20:29.727Z,8.30
2023-04-22T01:20:53.327Z,8.30
2023-04-22T01:21:17.366Z,8.30
2023-04-22T01:21:41.015Z,8.30
2023-04-22T01:22:05.261Z,8.30
2023-04-22T01:22:28.030Z,8.30
2023-04-22T01:22:50.963Z,8.30
2023-04-22T01:23:17.812Z,8.30
2023-04-22T01:23:40.672Z,8.30
2023-04-22T01:24:03.378Z,8.30
2023-04-22T01:24:26.781Z,8.30
2023-04-22T01:24:49.731Z,8.30
2023-04-22T01:25:12.548Z,8.30
2023-04-22T01:25:35.306Z,8.20
2023-04-22T01:25:58.084Z,8.20
2023-04-22T01:26:20.950Z,8.20
2023-04-22T01:26:43.705Z,8.20
2023-04-22T01:27:06.474Z,8.20
2023-04-22T01:27:29.294Z,8.20
2023-04-22T01:27:52.192Z,8.20
2023-04-22T01:28:15.140Z,8.10
2023-04-22T01:28:38.020Z,8.10
2023-04-22T01:29:02.838Z,8.20
2023-04-22T01:29:25.715Z,8.20
2023-04-22T01:29:48.416Z,8.10
2023-04-22T01:30:12.116Z,8.10
2023-04-22T01:30:34.869Z,8.10
2023-04-22T01:30:57.571Z,8.10
2023-04-22T01:31:20.327Z,8.10
2023-04-22T01:31:43.170Z,8.10
2023-04-22T01:32:06.205Z,8.10
2023-04-22T01:32:31.119Z,8.10
2023-04-22T01:32:54.096Z,8.10
2023-04-22T01:33:17.100Z,8.10
2023-04-22T01:33:40.115Z,8.10
2023-04-22T01:34:02.982Z,8.10
2023-04-22T01:34:25.828Z,8.10
2023-04-22T01:34:48.666Z,8.10
2023-04-22T01:35:11.565Z,8.10
2023-04-22T01:35:37.324Z,8.10
2023-04-22T01:36:00.845Z,8.00
2023-04-22T01:36:23.695Z,8.10
2023-04-22T01:36:46.567Z,8.00
2023-04-22T01:37:09.456Z,8.10
2023-04-22T01:37:32.340Z,8.10
2023-04-22T01:37:55.077Z,8.10
2023-04-22T01:38:19.288Z,8.10
2023-04-22T01:38:42.131Z,8.10
2023-04-22T01:39:05.120Z,8.10
2023-04-22T01:39:28.008Z,8.10
2023-04-22T01:39:50.838Z,8.10
2023-04-22T01:40:13.830Z,8.10
2023-04-22T01:40:36.711Z,8.10
2023-04-22T01:40:59.536Z,8.00
2023-04-22T01:41:22.575Z,8.00
2023-04-22T01:41:45.475Z,8.00
2023-04-22T01:42:08.208Z,8.00
2023-04-22T01:42:31.239Z,8.10
2023-04-22T01:42:54.096Z,8.00
2023-04-22T01:43:16.919Z,8.00
2023-04-22T01:43:40.680Z,8.00
2023-04-22T01:44:04.039Z,8.00
2023-04-22T01:44:27.120Z,8.00
2023-04-22T01:44:49.960Z,8.00
2023-04-22T01:45:13.504Z,8.00
2023-04-22T01:45:36.294Z,7.90
2023-04-22T01:46:00.556Z,7.90
2023-04-22T01:46:23.518Z,7.80
2023-04-22T01:46:46.345Z,7.80
2023-04-22T01:47:09.083Z,7.80
2023-04-22T01:47:31.915Z,7.80
2023-04-22T01:47:54.879Z,7.80
2023-04-22T01:48:18.982Z,8.50
2023-04-22T01:48:41.960Z,7.80
2023-04-22T01:49:04.850Z,7.80
2023-04-22T01:49:27.615Z,7.80
2023-04-22T01:49:50.354Z,7.70
2023-04-22T01:50:13.064Z,7.70
2023-04-22T01:50:35.785Z,7.70
2023-04-22T01:50:58.618Z,7.70
2023-04-22T01:51:21.396Z,7.80
2023-04-22T01:51:44.099Z,7.70
2023-04-22T01:52:06.831Z,7.70
2023-04-22T01:52:29.681Z,7.80
2023-04-22T01:52:52.407Z,7.80
2023-04-22T01:53:15.251Z,7.80
2023-04-22T01:53:39.618Z,7.90
2023-04-22T01:54:04.177Z,7.80
2023-04-22T01:54:27.093Z,7.80
2023-04-22T01:54:49.828Z,7.80
2023-04-22T01:55:12.803Z,7.80
2023-04-22T01:55:38.311Z,7.80
2023-04-22T01:56:01.158Z,7.90
2023-04-22T01:56:23.973Z,7.90
2023-04-22T01:56:50.906Z,7.90
2023-04-22T01:57:14.483Z,7.90
2023-04-22T01:57:37.400Z,7.90
2023-04-22T01:58:00.259Z,7.90
2023-04-22T01:58:23.121Z,8.00
2023-04-22T01:58:45.962Z,8.00
2023-04-22T01:59:09.248Z,8.00
2023-04-22T01:59:32.087Z,8.00
2023-04-22T01:59:54.905Z,8.00
2023-04-22T02:00:18.183Z,8.00
2023-04-22T02:00:40.918Z,7.90
2023-04-22T02:01:03.776Z,7.90
2023-04-22T02:01:26.725Z,7.90
2023-04-22T02:01:49.647Z,7.90
2023-04-22T02:02:12.839Z,7.90
2023-04-22T02:02:35.813Z,7.90
2023-04-22T02:02:58.803Z,7.90
2023-04-22T02:03:21.835Z,7.90
2023-04-22T02:03:45.005Z,7.80
2023-04-22T02:04:08.092Z,7.90
2023-04-22T02:04:30.948Z,7.80
2023-04-22T02:04:53.904Z,7.80
2023-04-22T02:05:17.880Z,7.80
2023-04-22T02:05:40.585Z,7.80
2023-04-22T02:06:03.472Z,7.80
2023-04-22T02:06:27.617Z,7.80
2023-04-22T02:06:50.446Z,7.80
2023-04-22T02:07:13.212Z,7.80
2023-04-22T02:07:36.577Z,7.80
2023-04-22T02:07:59.381Z,7.80
2023-04-22T02:08:22.083Z,7.80
2023-04-22T02:08:46.602Z,7.80
2023-04-22T02:09:09.335Z,7.80
2023-04-22T02:09:33.325Z,7.80
2023-04-22T02:09:56.171Z,7.80
2023-04-22T02:10:19.002Z,7.80
2023-04-22T02:10:41.813Z,7.80
2023-04-22T02:11:04.846Z,7.80
2023-04-22T02:11:27.574Z,7.80
2023-04-22T02:11:50.499Z,7.80
2023-04-22T02:12:15.622Z,7.80
2023-04-22T02:12:38.357Z,7.80
2023-04-22T02:13:03.235Z,7.80
2023-04-22T02:13:26.012Z,7.80
2023-04-22T02:13:51.527Z,7.80
2023-04-22T02:14:14.292Z,7.80
2023-04-22T02:14:37.022Z,7.80
2023-04-22T02:14:59.716Z,7.80
2023-04-22T02:15:23.107Z,7.90
2023-04-22T02:15:46.128Z,7.80
2023-04-22T02:16:09.533Z,7.80
2023-04-22T02:16:35.452Z,7.80
2023-04-22T02:16:58.306Z,7.90
2023-04-22T02:17:22.452Z,7.80
2023-04-22T02:17:45.227Z,7.80
2023-04-22T02:18:08.502Z,7.80
2023-04-22T02:18:31.206Z,7.90
2023-04-22T02:18:53.977Z,7.80
2023-04-22T02:19:16.702Z,7.80
2023-04-22T02:19:39.545Z,7.90
2023-04-22T02:20:02.951Z,7.90
2023-04-22T02:20:25.784Z,7.80
2023-04-22T02:20:48.899Z,7.80
2023-04-22T02:21:11.661Z,7.80
2023-04-22T02:21:34.388Z,7.70
2023-04-22T02:21:57.293Z,7.70
2023-04-22T02:22:20.081Z,7.70
2023-04-22T02:22:43.052Z,7.70
2023-04-22T02:23:05.891Z,7.70
2023-04-22T02:23:28.783Z,7.60
2023-04-22T02:23:53.040Z,7.60
2023-04-22T02:24:15.886Z,7.60
2023-04-22T02:24:38.683Z,7.50
2023-04-22T02:25:01.983Z,7.50
2023-04-22T02:25:24.799Z,7.60
2023-04-22T02:25:50.627Z,7.60
2023-04-22T02:26:13.360Z,7.50
2023-04-22T02:26:36.151Z,7.50
2023-04-22T02:26:58.971Z,7.50
2023-04-22T02:27:22.112Z,7.60
2023-04-22T02:27:44.950Z,7.50
2023-04-22T02:28:07.790Z,7.50
2023-04-22T02:28:30.565Z,7.50
2023-04-22T02:28:53.324Z,7.50
2023-04-22T02:29:16.436Z,7.50
2023-04-22T02:29:39.340Z,7.40
2023-04-22T02:30:02.623Z,7.50
2023-04-22T02:30:25.588Z,7.50
2023-04-22T02:30:48.432Z,7.50
2023-04-22T02:31:11.261Z,7.40
2023-04-22T02:31:34.164Z,7.40
2023-04-22T02:31:57.678Z,7.40
2023-04-22T02:32:20.774Z,7.40
2023-04-22T02:32:43.635Z,7.40
2023-04-22T02:33:06.467Z,7.40
2023-04-22T02:33:29.381Z,7.30
2023-04-22T02:33:52.196Z,7.30
2023-04-22T02:34:17.199Z,7.30
2023-04-22T02:34:39.918Z,7.30
2023-04-22T02:35:03.253Z,7.30
2023-04-22T02:35:26.098Z,7.30
2023-04-22T02:35:48.942Z,7.30
2023-04-22T02:36:11.715Z,7.30
2023-04-22T02:36:35.137Z,7.30
2023-04-22T02:37:01.095Z,7.30
2023-04-22T02:37:24.010Z,7.30
2023-04-22T02:37:46.905Z,7.30
2023-04-22T02:38:10.316Z,7.30
2023-04-22T02:38:33.139Z,7.30
2023-04-22T02:38:57.296Z,7.30
2023-04-22T02:39:22.760Z,7.30
2023-04-22T02:39:45.578Z,7.30
2023-04-22T02:40:09.461Z,7.30
2023-04-22T02:40:32.235Z,7.30
2023-04-22T02:40:55.052Z,7.20
2023-04-22T02:41:20.272Z,7.20
2023-04-22T02:41:43.104Z,7.20
2023-04-22T02:42:06.080Z,7.20
2023-04-22T02:42:28.826Z,7.20
2023-04-22T02:42:51.962Z,7.20
2023-04-22T02:43:14.707Z,7.20
2023-04-22T02:43:37.663Z,7.20
2023-04-22T02:44:00.538Z,7.20
2023-04-22T02:44:23.312Z,7.20
2023-04-22T02:44:46.090Z,7.20
2023-04-22T02:45:10.202Z,7.20
2023-04-22T02:45:33.051Z,7.20
2023-04-22T02:45:56.390Z,7.20
2023-04-22T02:46:19.173Z,7.20
2023-04-22T02:46:42.108Z,7.20
2023-04-22T02:47:06.376Z,7.20
2023-04-22T02:47:29.409Z,7.10
2023-04-22T02:47:52.322Z,7.10
2023-04-22T02:48:17.386Z,7.10
2023-04-22T02:48:40.241Z,7.10
2023-04-22T02:49:03.086Z,7.10
2023-04-22T02:49:25.935Z,7.10
2023-04-22T02:49:48.742Z,7.10
2023-04-22T02:50:11.709Z,7.10
2023-04-22T02:50:34.503Z,7.10
2023-04-22T02:50:57.265Z,7.10
2023-04-22T02:51:20.540Z,7.10
2023-04-22T02:51:43.379Z,7.10
2023-04-22T02:52:06.280Z,7.10
2023-04-22T02:52:29.096Z,7.10
2023-04-22T02:52:52.401Z,7.10
2023-04-22T02:53:15.387Z,7.20
2023-04-22T02:53:38.179Z,7.10
2023-04-22T02:54:02.599Z,7.10
2023-04-22T02:54:25.480Z,7.10
2023-04-22T02:54:48.258Z,7.10
2023-04-22T02:55:11.208Z,7.10
2023-04-22T02:55:33.971Z,7.10
2023-04-22T02:55:59.134Z,7.10
2023-04-22T02:56:22.118Z,7.00
2023-04-22T02:56:44.954Z,7.00
2023-04-22T02:57:08.035Z,7.00
2023-04-22T02:57:31.075Z,7.00
2023-04-22T02:57:53.817Z,7.00
2023-04-22T02:58:16.977Z,7.00
2023-04-22T02:58:39.887Z,7.00
2023-04-22T02:59:02.630Z,7.00
2023-04-22T02:59:25.467Z,7.00
2023-04-22T02:59:48.341Z,7.00
2023-04-22T03:00:11.694Z,7.00
2023-04-22T03:00:34.577Z,7.00
2023-04-22T03:00:58.170Z,7.00
2023-04-22T03:01:21.177Z,7.00
2023-04-22T03:01:43.936Z,7.00
2023-04-22T03:02:07.139Z,7.00
2023-04-22T03:02:30.258Z,7.00
2023-04-22T03:02:53.912Z,7.00
2023-04-22T03:03:17.087Z,7.00
2023-04-22T03:03:40.356Z,7.00
2023-04-22T03:04:03.672Z,7.00
2023-04-22T03:04:27.079Z,7.00
2023-04-22T03:04:52.316Z,6.90
2023-04-22T03:05:15.152Z,6.90
2023-04-22T03:05:37.916Z,6.90
2023-04-22T03:06:00.822Z,6.90
2023-04-22T03:06:23.622Z,6.90
2023-04-22T03:06:46.557Z,6.90
2023-04-22T03:07:09.407Z,6.90
2023-04-22T03:07:32.201Z,6.90
2023-04-22T03:07:55.053Z,6.90
2023-04-22T03:08:17.946Z,6.90
2023-04-22T03:08:40.796Z,6.90
2023-04-22T03:09:08.679Z,6.90
2023-04-22T03:09:31.545Z,6.90
2023-04-22T03:09:56.053Z,6.90
2023-04-22T03:10:19.210Z,6.90
2023-04-22T03:10:42.187Z,7.00
2023-04-22T03:11:05.743Z,6.90
2023-04-22T03:11:28.509Z,6.90
2023-04-22T03:11:51.258Z,6.90
2023-04-22T03:12:13.981Z,6.90
2023-04-22T03:12:36.741Z,6.90
2023-04-22T03:12:59.605Z,6.90
2023-04-22T03:13:22.427Z,6.90
2023-04-22T03:13:45.380Z,6.90
2023-04-22T03:14:08.281Z,6.90
2023-04-22T03:14:33.455Z,7.00
2023-04-22T03:14:56.175Z,7.00
2023-04-22T03:15:21.798Z,7.00
2023-04-22T03:15:45.024Z,6.90
2023-04-22T03:16:07.890Z,6.90
2023-04-22T03:16:30.838Z,6.90
2023-04-22T03:16:53.818Z,6.90
2023-04-22T03:17:16.987Z,6.90
2023-04-22T03:17:39.791Z,6.90
2023-04-22T03:18:05.053Z,6.90
2023-04-22T03:18:28.012Z,6.90
2023-04-22T03:18:51.046Z,6.90
2023-04-22T03:19:13.787Z,6.90
2023-04-22T03:19:36.893Z,6.90
2023-04-22T03:20:00.043Z,6.80
2023-04-22T03:20:22.949Z,6.90
2023-04-22T03:20:45.753Z,6.90
2023-04-22T03:21:08.756Z,6.80
2023-04-22T03:21:32.472Z,6.90
2023-04-22T03:21:56.700Z,6.80
2023-04-22T03:22:19.597Z,6.80
2023-04-22T03:22:42.420Z,6.80
2023-04-22T03:23:07.119Z,6.80
2023-04-22T03:23:29.923Z,6.80
2023-04-22T03:23:52.737Z,6.80
2023-04-22T03:24:17.032Z,6.80
2023-04-22T03:24:39.962Z,6.70
2023-04-22T03:25:06.032Z,6.70
2023-04-22T03:25:28.872Z,6.70
2023-04-22T03:25:52.221Z,6.70
2023-04-22T03:26:15.068Z,6.70
2023-04-22T03:26:40.527Z,6.70
2023-04-22T03:27:04.261Z,6.70
2023-04-22T03:27:27.211Z,6.60
2023-04-22T03:27:50.047Z,6.60
2023-04-22T03:28:15.240Z,6.60
2023-04-22T03:28:38.153Z,6.60
2023-04-22T03:29:01.005Z,6.60
2023-04-22T03:29:26.330Z,6.60
2023-04-22T03:29:49.177Z,6.60
2023-04-22T03:30:12.377Z,6.60
2023-04-22T03:30:35.164Z,6.60
2023-04-22T03:30:58.044Z,6.70
2023-04-22T03:31:23.500Z,6.70
2023-04-22T03:31:46.338Z,6.70
2023-04-22T03:32:12.352Z,6.70
2023-04-22T03:32:35.126Z,6.70
2023-04-22T03:32:58.470Z,6.70
2023-04-22T03:33:21.415Z,6.70
2023-04-22T03:33:44.262Z,6.70
2023-04-22T03:34:06.979Z,6.70
2023-04-22T03:34:29.754Z,6.70
2023-04-22T03:34:55.406Z,6.70
2023-04-22T03:35:18.449Z,6.70
2023-04-22T03:35:43.703Z,6.70
2023-04-22T03:36:07.238Z,6.70
2023-04-22T03:36:30.054Z,6.70
2023-04-22T03:36:52.986Z,6.70
2023-04-22T03:37:16.334Z,6.80
2023-04-22T03:37:39.317Z,6.80
2023-04-22T03:38:02.090Z,6.70
2023-04-22T03:38:27.326Z,6.80
2023-04-22T03:38:50.368Z,6.80
2023-04-22T03:39:13.464Z,6.70
2023-04-22T03:39:37.934Z,6.80
2023-04-22T03:40:01.288Z,6.80
2023-04-22T03:40:26.312Z,6.80
2023-04-22T03:40:51.009Z,6.80
2023-04-22T03:41:14.498Z,6.80
2023-04-22T03:41:37.251Z,6.80
2023-04-22T03:42:02.825Z,6.80
2023-04-22T03:42:25.886Z,6.80
2023-04-22T03:42:48.808Z,6.80
2023-04-22T03:43:11.964Z,6.80
2023-04-22T03:43:34.750Z,6.80
2023-04-22T03:44:00.340Z,6.80
2023-04-22T03:44:24.396Z,6.80
2023-04-22T03:44:49.551Z,6.80
2023-04-22T03:45:12.496Z,6.80
2023-04-22T03:45:35.575Z,6.80
2023-04-22T03:45:59.490Z,6.80
2023-04-22T03:46:22.380Z,6.80
2023-04-22T03:46:45.258Z,6.80
2023-04-22T03:47:08.774Z,6.70
2023-04-22T03:47:32.232Z,6.70
2023-04-22T03:47:55.143Z,6.70
2023-04-22T03:48:20.388Z,6.70
2023-04-22T03:48:43.126Z,6.60
2023-04-22T03:49:09.068Z,6.60
2023-04-22T03:49:31.917Z,6.60
2023-04-22T03:49:54.759Z,6.60
2023-04-22T03:50:17.630Z,6.60
2023-04-22T03:50:42.734Z,6.60
2023-04-22T03:51:05.766Z,6.60
2023-04-22T03:51:29.152Z,6.60
2023-04-22T03:51:51.898Z,6.70
2023-04-22T03:52:15.298Z,6.60
2023-04-22T03:52:38.054Z,6.60
2023-04-22T03:53:03.240Z,6.60
2023-04-22T03:53:26.024Z,6.60
2023-04-22T03:53:48.867Z,6.60
2023-04-22T03:54:11.695Z,6.60
2023-04-22T03:54:34.465Z,6.60
2023-04-22T03:55:01.138Z,6.60
2023-04-22T03:55:23.964Z,6.60
2023-04-22T03:55:46.791Z,6.70
2023-04-22T03:56:09.498Z,6.70
2023-04-22T03:56:32.418Z,6.60
2023-04-22T03:56:55.313Z,6.70
2023-04-22T03:57:18.249Z,6.60
2023-04-22T03:57:41.095Z,6.60
2023-04-22T03:58:04.043Z,6.60
2023-04-22T03:58:29.264Z,6.70
2023-04-22T03:58:52.132Z,6.60
2023-04-22T03:59:17.292Z,6.70
2023-04-22T03:59:40.425Z,6.70
2023-04-22T04:00:03.584Z,6.70
2023-04-22T04:00:26.513Z,6.70
2023-04-22T04:00:49.273Z,6.70
2023-04-22T04:01:12.222Z,6.70
2023-04-22T04:01:36.530Z,6.70
2023-04-22T04:01:59.584Z,6.70
2023-04-22T04:02:22.382Z,6.70
2023-04-22T04:02:45.727Z,6.70
2023-04-22T04:03:12.238Z,6.70
2023-04-22T04:03:35.753Z,6.60
2023-04-22T04:03:59.162Z,6.70
2023-04-22T04:04:23.973Z,6.70
2023-04-22T04:04:47.649Z,6.70
2023-04-22T04:05:11.748Z,6.70
2023-04-22T04:05:34.610Z,6.70
2023-04-22T04:05:57.451Z,6.70
2023-04-22T04:06:20.348Z,6.70
2023-04-22T04:06:43.056Z,6.70
2023-04-22T04:07:06.933Z,6.70
2023-04-22T04:07:29.767Z,6.70
2023-04-22T04:07:52.530Z,6.70
2023-04-22T04:08:16.013Z,6.70
2023-04-22T04:08:38.817Z,6.80
2023-04-22T04:09:02.019Z,6.80
2023-04-22T04:09:24.908Z,6.80
2023-04-22T04:09:50.244Z,6.80
2023-04-22T04:10:14.705Z,6.80
2023-04-22T04:10:37.742Z,6.80
2023-04-22T04:11:01.514Z,6.80
2023-04-22T04:11:24.357Z,6.80
2023-04-22T04:11:47.138Z,6.80
2023-04-22T04:12:12.172Z,6.80
2023-04-22T04:12:35.019Z,6.80
2023-04-22T04:13:00.906Z,6.80
2023-04-22T04:13:23.729Z,6.80
2023-04-22T04:13:48.879Z,6.80
2023-04-22T04:14:11.773Z,6.80
2023-04-22T04:14:34.506Z,6.80
2023-04-22T04:14:57.293Z,6.80
2023-04-22T04:15:21.524Z,6.80
2023-04-22T04:15:44.938Z,6.80
2023-04-22T04:16:08.012Z,6.80
2023-04-22T04:16:31.057Z,6.90
2023-04-22T04:16:53.931Z,6.90
2023-04-22T04:17:16.768Z,6.80
2023-04-22T04:17:40.148Z,6.80
2023-04-22T04:18:05.375Z,6.90
2023-04-22T04:18:29.739Z,6.80
2023-04-22T04:18:52.610Z,6.90
2023-04-22T04:19:15.386Z,6.90
2023-04-22T04:19:38.657Z,7.00
2023-04-22T04:20:01.927Z,7.00
2023-04-22T04:20:24.881Z,7.00
2023-04-22T04:20:47.610Z,7.10
2023-04-22T04:21:10.482Z,7.10
2023-04-22T04:21:33.979Z,7.10
2023-04-22T04:21:57.263Z,7.10
2023-04-22T04:22:20.698Z,7.20
2023-04-22T04:22:44.620Z,7.20
2023-04-22T04:23:08.083Z,7.20
2023-04-22T04:23:30.841Z,7.20
2023-04-22T04:23:53.620Z,7.20
2023-04-22T04:24:16.458Z,7.20
2023-04-22T04:24:42.398Z,7.20
2023-04-22T04:25:07.025Z,7.20
2023-04-22T04:25:37.860Z,7.20
2023-04-22T04:26:03.129Z,7.30
2023-04-22T04:26:27.595Z,7.30
2023-04-22T04:26:53.797Z,7.40
2023-04-22T04:27:16.655Z,7.50
2023-04-22T04:27:41.972Z,7.60
2023-04-22T04:28:05.342Z,7.60
2023-04-22T04:28:30.254Z,7.70
2023-04-22T04:28:53.653Z,7.70
2023-04-22T04:29:16.434Z,7.80
2023-04-22T04:29:39.945Z,7.90
2023-04-22T04:30:04.358Z,7.90
2023-04-22T04:30:27.291Z,8.00
2023-04-22T04:30:50.118Z,8.20
2023-04-22T04:31:13.012Z,8.20
2023-04-22T04:31:35.905Z,8.30
2023-04-22T04:31:58.646Z,8.40
2023-04-22T04:32:22.020Z,8.50
2023-04-22T04:32:45.846Z,8.60
2023-04-22T04:33:08.983Z,8.60
2023-04-22T04:33:32.722Z,8.60
2023-04-22T04:33:57.884Z,8.70
2023-04-22T04:34:23.300Z,8.70
2023-04-22T04:34:46.017Z,8.80
2023-04-22T04:35:10.129Z,8.90
2023-04-22T04:35:34.668Z,9.00
2023-04-22T04:35:58.609Z,9.10
2023-04-22T04:36:21.356Z,9.10
2023-04-22T04:36:46.632Z,9.20
2023-04-22T04:37:09.568Z,9.10
2023-04-22T04:37:32.325Z,9.10
2023-04-22T04:37:56.220Z,9.10
2023-04-22T04:38:19.721Z,9.10
2023-04-22T04:38:42.761Z,9.00
2023-04-22T04:39:05.538Z,9.00
2023-04-22T04:39:28.838Z,8.90
2023-04-22T04:39:53.776Z,8.90
2023-04-22T04:40:16.817Z,8.80
2023-04-22T04:40:45.429Z,8.80
2023-04-22T04:41:10.598Z,8.80
2023-04-22T04:41:33.356Z,8.80
2023-04-22T04:41:59.068Z,8.90
2023-04-22T04:42:24.642Z,8.90
2023-04-22T04:42:47.488Z,9.00
2023-04-22T04:43:10.239Z,9.00
2023-04-22T04:43:33.072Z,9.00
2023-04-22T04:43:56.457Z,9.10
2023-04-22T04:44:20.996Z,9.20
2023-04-22T04:44:43.780Z,9.30
2023-04-22T04:45:09.661Z,9.40
2023-04-22T04:45:32.571Z,9.50
2023-04-22T04:45:55.424Z,9.60
2023-04-22T04:46:18.409Z,9.60
2023-04-22T04:46:41.526Z,9.60
2023-04-22T04:47:05.658Z,9.70
2023-04-22T04:47:30.281Z,9.70
2023-04-22T04:47:53.147Z,9.80
2023-04-22T04:48:16.894Z,9.80
2023-04-22T04:48:42.445Z,9.90
2023-04-22T04:49:05.199Z,9.90
2023-04-22T04:49:30.680Z,9.90
2023-04-22T04:49:54.744Z,10.00
2023-04-22T04:50:17.464Z,10.10
2023-04-22T04:50:42.478Z,10.10
2023-04-22T04:51:06.421Z,10.20
2023-04-22T04:51:29.169Z,10.30
2023-04-22T04:51:51.952Z,10.30
2023-04-22T04:52:14.631Z,10.40
2023-04-22T04:52:37.414Z,10.50
2023-04-22T04:53:00.205Z,10.60
2023-04-22T04:53:23.067Z,10.70
2023-04-22T04:53:45.994Z,10.70
2023-04-22T04:54:08.762Z,10.90
2023-04-22T04:54:31.502Z,10.90
2023-04-22T04:54:54.240Z,11.00
2023-04-22T04:55:17.287Z,11.10
2023-04-22T04:55:41.707Z,11.10
2023-04-22T04:56:04.785Z,11.20
2023-04-22T04:56:27.690Z,11.30
2023-04-22T04:56:50.497Z,11.30
2023-04-22T04:57:13.133Z,11.40
2023-04-22T04:57:38.266Z,11.50
2023-04-22T04:58:01.343Z,11.50
2023-04-22T04:58:24.179Z,11.60
2023-04-22T04:58:47.032Z,11.70
2023-04-22T04:59:09.949Z,11.80
2023-04-22T04:59:32.844Z,11.80
2023-04-22T04:59:55.838Z,11.90
2023-04-22T05:00:21.408Z,11.90
2023-04-22T05:00:44.270Z,12.00
2023-04-22T05:01:07.080Z,12.10
2023-04-22T05:01:29.903Z,12.10
2023-04-22T05:01:52.841Z,12.10
2023-04-22T05:02:15.768Z,12.20
2023-04-22T05:02:38.773Z,12.20
2023-04-22T05:03:01.845Z,12.30
2023-04-22T05:03:24.901Z,12.40
2023-04-22T05:03:48.198Z,12.40
2023-04-22T05:04:12.175Z,12.50
2023-04-22T05:04:35.245Z,12.60
2023-04-22T05:04:58.039Z,12.80
2023-04-22T05:05:20.841Z,12.80
2023-04-22T05:05:43.671Z,12.90
2023-04-22T05:06:07.320Z,12.90
2023-04-22T05:06:30.272Z,12.90
2023-04-22T05:06:53.298Z,12.90
2023-04-22T05:07:18.516Z,13.00
2023-04-22T05:07:41.375Z,13.10
2023-04-22T05:08:04.132Z,13.20
2023-04-22T05:08:26.913Z,13.20
2023-04-22T05:08:49.641Z,13.30
2023-04-22T05:09:12.668Z,13.40
2023-04-22T05:09:37.876Z,13.50